createdAt,value
2023-05-08T00:01:43.235Z,23.77
2023-05-08T00:04:10.986Z,24.17
2023-05-08T00:06:38.574Z,29.88
2023-05-08T00:09:06.053Z,22.15
2023-05-08T00:11:33.540Z,24.10
2023-05-08T00:14:01.263Z,26.52
2023-05-08T00:16:30.164Z,25.48
2023-05-08T00:18:57.617Z,26.98
2023-05-08T00:21:25.178Z,26.70
2023-05-08T00:23:53.083Z,25.95
2023-05-08T00:26:21.689Z,25.45
2023-05-08T00:28:49.728Z,33.85
2023-05-08T00:31:17.328Z,26.50
2023-05-08T00:33:46.342Z,27.38
2023-05-08T00:36:15.673Z,29.50
2023-05-08T00:38:43.664Z,24.95
2023-05-08T00:41:11.476Z,28.60
2023-05-08T00:43:40.120Z,25.33
2023-05-08T00:46:09.617Z,28.45
2023-05-08T00:48:37.473Z,25.27
2023-05-08T00:51:09.281Z,26.88
2023-05-08T00:53:40.618Z,26.92
2023-05-08T00:56:11.940Z,24.30
2023-05-08T00:58:40.635Z,28.45
2023-05-08T01:01:08.359Z,28.00
2023-05-08T01:03:37.535Z,28.33
2023-05-08T01:06:07.940Z,27.17
2023-05-08T01:08:36.041Z,28.65
2023-05-08T01:11:13.822Z,26.52
2023-05-08T01:13:53.165Z,26.80
2023-05-08T01:16:26.189Z,26.13
2023-05-08T01:19:02.383Z,29.38
2023-05-08T01:21:39.292Z,23.83
2023-05-08T01:24:37.186Z,24.23
2023-05-08T01:27:41.513Z,26.60
2023-05-08T01:30:42.417Z,29.83
2023-05-08T01:33:18.205Z,27.95
2023-05-08T01:35:50.568Z,26.42
2023-05-08T01:38:25.829Z,26.80
2023-05-08T01:40:57.733Z,25.10
2023-05-08T01:43:29.907Z,24.50
2023-05-08T01:46:00.237Z,26.73
2023-05-08T01:48:34.774Z,28.33
2023-05-08T01:51:07.370Z,30.67
2023-05-08T01:53:39.644Z,36.85
2023-05-08T01:56:12.974Z,33.15
2023-05-08T01:58:42.300Z,34.17
2023-05-08T02:01:11.604Z,29.00
2023-05-08T02:03:42.708Z,27.27
2023-05-08T02:06:13.801Z,31.67
2023-05-08T02:08:42.960Z,28.25
2023-05-08T02:11:13.441Z,27.58
2023-05-08T02:13:41.997Z,28.95
2023-05-08T02:16:12.370Z,31.80
2023-05-08T02:18:47.867Z,26.67
2023-05-08T02:21:16.258Z,28.00
2023-05-08T02:23:46.119Z,26.08
2023-05-08T02:26:14.984Z,26.83
2023-05-08T02:28:43.160Z,31.63
2023-05-08T02:31:12.922Z,25.05
2023-05-08T02:33:44.320Z,27.30
2023-05-08T02:36:14.008Z,27.77
2023-05-08T02:38:45.047Z,28.70
2023-05-08T02:41:14.252Z,29.92
2023-05-08T02:43:42.045Z,28.02
2023-05-08T02:46:15.700Z,28.40
2023-05-08T02:48:56.029Z,27.13
2023-05-08T02:51:28.991Z,31.30
2023-05-08T02:54:00.006Z,29.33
2023-05-08T02:56:37.170Z,29.42
2023-05-08T02:59:16.609Z,28.85
2023-05-08T03:01:49.297Z,26.83
2023-05-08T03:04:26.219Z,30.60
2023-05-08T03:06:57.714Z,33.28
2023-05-08T03:09:29.162Z,30.13
2023-05-08T03:12:03.690Z,29.45
2023-05-08T03:14:33.135Z,28.73
2023-05-08T03:17:01.973Z,30.15
2023-05-08T03:19:35.317Z,29.67
2023-05-08T03:22:05.492Z,27.92
2023-05-08T03:24:36.907Z,34.60
2023-05-08T03:27:05.500Z,36.05
2023-05-08T03:29:34.495Z,32.03
2023-05-08T03:32:03.711Z,29.52
2023-05-08T03:34:35.043Z,33.75
2023-05-08T03:37:02.570Z,34.25
2023-05-08T03:39:30.105Z,32.58
2023-05-08T03:41:57.949Z,36.47
2023-05-08T03:44:26.964Z,36.90
2023-05-08T03:46:57.826Z,33.60
2023-05-08T03:49:27.097Z,27.65
2023-05-08T03:51:57.194Z,29.48
2023-05-08T03:54:25.562Z,31.83
2023-05-08T03:56:54.737Z,30.08
2023-05-08T03:59:35.740Z,31.70
2023-05-08T04:02:13.634Z,29.27
2023-05-08T04:04:42.302Z,32.15
2023-05-08T04:07:14.792Z,32.30
2023-05-08T04:09:50.565Z,28.50
2023-05-08T04:12:23.020Z,24.55
2023-05-08T04:14:56.534Z,22.23
2023-05-08T04:17:33.046Z,23.25
2023-05-08T04:20:04.693Z,22.30
2023-05-08T04:22:35.617Z,20.60
2023-05-08T04:25:07.057Z,21.50
2023-05-08T04:27:35.868Z,19.80
2023-05-08T04:30:04.117Z,17.27
2023-05-08T04:32:34.741Z,15.27
2023-05-08T04:35:03.045Z,17.33
2023-05-08T04:37:31.752Z,14.98
2023-05-08T04:40:01.363Z,16.17
2023-05-08T04:42:29.066Z,19.60
2023-05-08T04:44:56.878Z,14.98
2023-05-08T04:47:24.630Z,16.52
2023-05-08T04:49:52.244Z,23.17
2023-05-08T04:52:19.746Z,16.92
2023-05-08T04:54:47.306Z,18.23
2023-05-08T04:57:16.149Z,17.25
2023-05-08T04:59:43.629Z,17.13
2023-05-08T05:02:11.191Z,18.83
2023-05-08T05:04:38.707Z,15.05
2023-05-08T05:07:06.705Z,18.27
2023-05-08T05:09:39.915Z,14.95
2023-05-08T05:12:10.183Z,20.65
2023-05-08T05:14:41.796Z,28.45
2023-05-08T05:17:09.298Z,21.70
2023-05-08T05:19:38.068Z,22.23
2023-05-08T05:22:06.158Z,23.67
2023-05-08T05:24:38.439Z,21.65
2023-05-08T05:27:08.095Z,22.67
2023-05-08T05:29:38.112Z,23.45
2023-05-08T05:32:10.053Z,31.17
2023-05-08T05:34:40.128Z,27.27
2023-05-08T05:37:07.761Z,25.88
2023-05-08T05:39:35.818Z,22.13
2023-05-08T05:42:03.309Z,23.65
2023-05-08T05:44:30.887Z,19.33
2023-05-08T05:46:58.652Z,22.02
2023-05-08T05:49:27.510Z,19.83
2023-05-08T05:51:54.978Z,18.13
2023-05-08T05:54:22.529Z,21.90
2023-05-08T05:56:52.422Z,18.75
2023-05-08T05:59:22.471Z,24.33
2023-05-08T06:01:51.776Z,14.18
2023-05-08T06:04:19.350Z,14.52
2023-05-08T06:06:50.744Z,11.23
2023-05-08T06:09:18.270Z,12.48
2023-05-08T06:11:46.016Z,13.48
2023-05-08T06:14:13.577Z,9.52
2023-05-08T06:16:41.155Z,10.75
2023-05-08T06:19:08.987Z,11.50
2023-05-08T06:21:36.684Z,17.70
2023-05-08T06:24:11.624Z,10.70
2023-05-08T06:26:41.530Z,9.43
2023-05-08T06:29:09.071Z,14.05
2023-05-08T06:31:36.745Z,10.65
2023-05-08T06:34:04.659Z,12.10
2023-05-08T06:36:34.596Z,10.27
2023-05-08T06:39:02.079Z,14.82
2023-05-08T06:41:30.930Z,12.02
2023-05-08T06:43:58.517Z,8.90
2023-05-08T06:46:26.139Z,8.98
2023-05-08T06:48:53.639Z,8.63
2023-05-08T06:51:23.033Z,10.23
2023-05-08T06:53:50.665Z,10.07
2023-05-08T06:56:18.427Z,9.00
2023-05-08T06:58:57.186Z,9.50
2023-05-08T07:01:32.456Z,11.18
2023-05-08T07:04:00.577Z,10.50
2023-05-08T07:06:28.451Z,7.45
2023-05-08T07:08:55.950Z,9.57
2023-05-08T07:11:23.829Z,12.00
2023-05-08T07:13:52.640Z,12.60
2023-05-08T07:16:20.164Z,10.25
2023-05-08T07:18:47.773Z,9.25
2023-05-08T07:21:17.988Z,9.20
2023-05-08T07:23:50.243Z,10.65
2023-05-08T07:26:17.801Z,10.50
2023-05-08T07:28:47.723Z,7.68
2023-05-08T07:31:19.214Z,9.00
2023-05-08T07:33:49.565Z,8.20
2023-05-08T07:36:17.113Z,11.13
2023-05-08T07:38:46.641Z,11.25
2023-05-08T07:41:14.153Z,10.75
2023-05-08T07:43:45.186Z,13.23
2023-05-08T07:46:18.965Z,7.80
2023-05-08T07:48:46.570Z,6.93
2023-05-08T07:51:14.386Z,9.50
2023-05-08T07:53:47.030Z,6.70
2023-05-08T07:56:14.495Z,8.50
2023-05-08T07:58:42.566Z,8.70
2023-05-08T08:01:10.031Z,7.80
2023-05-08T08:03:39.034Z,8.88
2023-05-08T08:06:06.777Z,7.50
2023-05-08T08:08:37.070Z,12.30
2023-05-08T08:11:06.752Z,10.23
2023-05-08T08:13:34.324Z,9.25
2023-05-08T08:16:06.313Z,8.25
2023-05-08T08:18:36.059Z,8.38
2023-05-08T08:21:09.078Z,9.98
2023-05-08T08:23:39.279Z,7.30
2023-05-08T08:26:09.204Z,7.40
2023-05-08T08:28:36.716Z,7.97
2023-05-08T08:31:05.413Z,7.82
2023-05-08T08:33:32.938Z,9.82
2023-05-08T08:36:00.453Z,7.47
2023-05-08T08:38:29.569Z,9.73
2023-05-08T08:40:57.112Z,8.98
2023-05-08T08:43:24.620Z,7.38
2023-05-08T08:45:52.750Z,11.80
2023-05-08T08:48:21.201Z,9.02
2023-05-08T08:50:53.654Z,7.53
2023-05-08T08:53:27.078Z,6.97
2023-05-08T08:55:59.060Z,8.07
2023-05-08T08:58:32.456Z,8.30
2023-05-08T09:01:03.200Z,9.68
2023-05-08T09:03:34.437Z,9.07
2023-05-08T09:06:02.530Z,7.50
2023-05-08T09:08:30.227Z,7.60
2023-05-08T09:10:59.425Z,6.95
2023-05-08T09:13:27.030Z,9.68
2023-05-08T09:15:54.648Z,7.20
2023-05-08T09:18:22.174Z,7.28
2023-05-08T09:20:54.308Z,8.98
2023-05-08T09:23:24.232Z,5.65
2023-05-08T09:25:54.216Z,5.85
2023-05-08T09:28:28.401Z,5.55
2023-05-08T09:30:58.515Z,7.65
2023-05-08T09:33:27.553Z,4.85
2023-05-08T09:35:55.546Z,7.45
2023-05-08T09:38:38.830Z,5.35
2023-05-08T09:41:15.213Z,5.63
2023-05-08T09:43:47.097Z,5.93
2023-05-08T09:46:23.023Z,6.35
2023-05-08T09:48:50.800Z,5.22
2023-05-08T09:51:18.622Z,6.00
2023-05-08T09:53:48.508Z,5.10
2023-05-08T09:56:16.012Z,5.43
2023-05-08T09:58:45.691Z,5.68
2023-05-08T10:01:30.508Z,6.38
2023-05-08T10:03:58.575Z,3.58
2023-05-08T10:06:26.151Z,4.38
2023-05-08T10:09:08.150Z,4.85
2023-05-08T10:11:35.809Z,5.53
2023-05-08T10:14:04.631Z,4.40
2023-05-08T10:16:36.672Z,4.75
2023-05-08T10:19:11.440Z,4.47
2023-05-08T10:21:42.454Z,3.55
2023-05-08T10:24:15.234Z,3.67
2023-05-08T10:26:57.071Z,3.95
2023-05-08T10:29:33.764Z,5.22
2023-05-08T10:32:03.633Z,3.88
2023-05-08T10:34:33.528Z,3.88
2023-05-08T10:37:01.050Z,6.22
2023-05-08T10:39:30.448Z,6.38
2023-05-08T10:41:58.332Z,4.13
2023-05-08T10:44:29.532Z,4.13
2023-05-08T10:47:02.980Z,3.90
2023-05-08T10:49:38.975Z,4.95
2023-05-08T10:52:17.363Z,6.35
2023-05-08T10:55:17.605Z,4.25
2023-05-08T10:58:03.291Z,4.07
2023-05-08T11:00:54.494Z,4.40
2023-05-08T11:03:32.185Z,5.32
2023-05-08T11:06:01.941Z,4.60
2023-05-08T11:08:31.403Z,5.38
2023-05-08T11:11:11.455Z,6.43
2023-05-08T11:13:41.652Z,6.00
2023-05-08T11:16:11.125Z,5.55
2023-05-08T11:18:48.980Z,4.60
2023-05-08T11:21:21.976Z,8.40
2023-05-08T11:23:57.510Z,8.25
2023-05-08T11:26:39.709Z,8.35
2023-05-08T11:29:17.801Z,8.13
2023-05-08T11:31:53.835Z,5.07
2023-05-08T11:34:49.177Z,4.50
2023-05-08T11:37:20.673Z,4.20
2023-05-08T11:39:49.222Z,5.20
2023-05-08T11:42:35.960Z,4.40
2023-05-08T11:45:08.820Z,6.03
2023-05-08T11:47:42.292Z,5.55
2023-05-08T11:50:11.538Z,6.07
2023-05-08T11:52:40.518Z,4.55
2023-05-08T11:55:09.752Z,3.90
2023-05-08T11:57:37.778Z,4.20
2023-05-08T12:00:06.654Z,4.80
2023-05-08T12:02:39.926Z,6.13
2023-05-08T12:05:08.332Z,6.00
2023-05-08T12:07:44.326Z,8.15
2023-05-08T12:10:12.323Z,5.93
2023-05-08T12:12:41.206Z,4.65
2023-05-08T12:15:11.552Z,3.97
2023-05-08T12:17:40.801Z,4.00
2023-05-08T12:20:14.204Z,5.75
2023-05-08T12:22:43.090Z,7.35
2023-05-08T12:25:12.782Z,4.35
2023-05-08T12:27:40.558Z,4.57
2023-05-08T12:30:10.086Z,4.53
2023-05-08T12:32:38.848Z,5.50
2023-05-08T12:35:09.214Z,5.13
2023-05-08T12:37:37.272Z,4.97
2023-05-08T12:40:05.416Z,6.68
2023-05-08T12:42:46.427Z,4.57
2023-05-08T12:45:20.277Z,5.20
2023-05-08T12:47:49.192Z,9.60
2023-05-08T12:50:20.992Z,5.03
2023-05-08T12:52:51.378Z,4.85
2023-05-08T12:55:27.381Z,5.97
2023-05-08T12:58:02.916Z,5.30
2023-05-08T13:00:38.149Z,6.57
2023-05-08T13:03:07.449Z,6.78
2023-05-08T13:05:37.678Z,5.95
2023-05-08T13:08:06.696Z,5.97
2023-05-08T13:10:50.180Z,8.68
2023-05-08T13:13:19.306Z,6.25
2023-05-08T13:15:47.420Z,6.20
2023-05-08T13:18:15.105Z,5.35
2023-05-08T13:20:44.497Z,8.45
2023-05-08T13:23:12.018Z,5.93
2023-05-08T13:25:40.520Z,5.93
2023-05-08T13:28:09.272Z,9.00
2023-05-08T13:30:37.594Z,7.63
2023-05-08T13:33:05.891Z,6.80
2023-05-08T13:35:34.714Z,5.60
2023-05-08T13:38:04.075Z,6.63
2023-05-08T13:40:31.625Z,7.57
2023-05-08T13:42:59.127Z,6.22
2023-05-08T13:45:26.792Z,7.03
2023-05-08T13:47:55.099Z,9.95
2023-05-08T13:50:22.918Z,7.03
2023-05-08T13:52:53.207Z,7.68
2023-05-08T13:55:23.856Z,7.05
2023-05-08T13:57:51.978Z,7.15
2023-05-08T14:00:20.362Z,6.72
2023-05-08T14:02:50.064Z,7.40
2023-05-08T14:05:19.163Z,9.50
2023-05-08T14:07:46.728Z,6.22
2023-05-08T14:10:16.866Z,7.07
2023-05-08T14:12:46.550Z,9.45
2023-05-08T14:15:14.459Z,8.63
2023-05-08T14:17:42.772Z,8.45
2023-05-08T14:20:12.151Z,7.90
2023-05-08T14:22:39.957Z,7.72
2023-05-08T14:25:09.059Z,7.65
2023-05-08T14:27:36.632Z,11.57
2023-05-08T14:30:07.000Z,8.95
2023-05-08T14:32:34.606Z,9.70
2023-05-08T14:35:02.121Z,6.22
2023-05-08T14:37:29.628Z,8.68
2023-05-08T14:39:59.221Z,7.82
2023-05-08T14:42:26.807Z,8.50
2023-05-08T14:44:55.951Z,6.15
2023-05-08T14:47:25.613Z,8.60
2023-05-08T14:49:53.556Z,7.32
2023-05-08T14:52:21.135Z,9.35
2023-05-08T14:54:52.912Z,8.38
2023-05-08T14:57:21.165Z,7.07
2023-05-08T14:59:55.086Z,8.10
2023-05-08T15:02:23.034Z,7.03
2023-05-08T15:04:51.996Z,13.30
2023-05-08T15:07:19.466Z,11.35
2023-05-08T15:10:10.965Z,5.88
2023-05-08T15:12:38.537Z,6.35
2023-05-08T15:15:07.299Z,6.85
2023-05-08T15:17:36.302Z,5.18
2023-05-08T15:20:06.193Z,6.13
2023-05-08T15:22:33.732Z,7.43
2023-05-08T15:25:02.615Z,6.63
2023-05-08T15:27:30.465Z,7.38
2023-05-08T15:29:58.175Z,6.03
2023-05-08T15:32:26.054Z,7.45
2023-05-08T15:34:53.587Z,6.60
2023-05-08T15:37:22.437Z,5.82
2023-05-08T15:39:50.719Z,5.32
2023-05-08T15:42:18.212Z,8.18
2023-05-08T15:47:16.953Z,9.10
2023-05-08T15:49:44.542Z,5.70
2023-05-08T15:52:12.069Z,7.15
2023-05-08T15:54:40.962Z,6.85
2023-05-08T15:57:08.500Z,7.28
2023-05-08T15:59:37.522Z,6.05
2023-05-08T16:02:05.349Z,5.18
2023-05-08T16:04:33.095Z,6.40
2023-05-08T16:07:01.004Z,7.55
2023-05-08T16:09:28.844Z,11.45
2023-05-08T16:11:57.833Z,8.63
2023-05-08T16:14:25.336Z,7.15
2023-05-08T16:16:52.965Z,6.22
2023-05-08T16:19:20.521Z,6.55
2023-05-08T16:21:48.421Z,6.72
2023-05-08T16:24:15.923Z,5.35
2023-05-08T16:26:43.445Z,6.15
2023-05-08T16:29:12.390Z,6.10
2023-05-08T16:31:39.962Z,5.93
2023-05-08T16:34:07.501Z,8.68
2023-05-08T16:36:35.057Z,6.93
2023-05-08T16:39:02.550Z,7.68
2023-05-08T16:41:30.136Z,5.43
2023-05-08T16:43:57.605Z,8.95
2023-05-08T16:46:30.088Z,8.35
2023-05-08T16:48:58.074Z,6.90
2023-05-08T16:51:26.315Z,8.20
2023-05-08T16:53:54.534Z,8.80
2023-05-08T16:56:24.339Z,6.15
2023-05-08T16:58:51.863Z,8.40
2023-05-08T17:01:19.549Z,9.23
2023-05-08T17:03:48.468Z,5.97
2023-05-08T17:06:16.050Z,9.88
2023-05-08T17:08:43.585Z,8.07
2023-05-08T17:11:11.091Z,7.70
2023-05-08T17:13:38.620Z,7.97
2023-05-08T17:16:06.813Z,11.20
2023-05-08T17:18:34.459Z,7.15
2023-05-08T17:21:03.310Z,10.23
2023-05-08T17:23:30.806Z,8.52
2023-05-08T17:25:58.664Z,10.00
2023-05-08T17:28:26.539Z,8.25
2023-05-08T17:30:54.468Z,8.38
2023-05-08T17:33:22.124Z,6.45
2023-05-08T17:35:49.884Z,7.60
2023-05-08T17:38:18.727Z,8.18
2023-05-08T17:40:46.633Z,7.45
2023-05-08T17:43:14.129Z,8.65
2023-05-08T17:45:45.426Z,7.22
2023-05-08T17:48:12.965Z,9.48
2023-05-08T17:50:42.163Z,11.30
2023-05-08T17:53:09.737Z,7.55
2023-05-08T17:55:38.592Z,10.43
2023-05-08T17:58:06.065Z,9.52
2023-05-08T18:00:33.526Z,7.60
2023-05-08T18:03:01.094Z,8.52
2023-05-08T18:05:28.621Z,10.30
2023-05-08T18:07:56.190Z,7.97
2023-05-08T18:10:24.156Z,9.65
2023-05-08T18:12:52.983Z,10.48
2023-05-08T18:15:20.661Z,9.05
2023-05-08T18:17:48.801Z,9.00
2023-05-08T18:20:16.365Z,9.93
2023-05-08T18:22:45.116Z,11.70
2023-05-08T18:25:12.595Z,6.50
2023-05-08T18:27:41.062Z,7.70
2023-05-08T18:30:10.843Z,7.88
2023-05-08T18:32:38.401Z,9.95
2023-05-08T18:35:06.723Z,7.47
2023-05-08T18:37:34.189Z,7.25
2023-05-08T18:40:01.734Z,7.85
2023-05-08T18:42:29.235Z,7.82
2023-05-08T18:44:56.840Z,6.90
2023-05-08T18:47:25.880Z,10.20
2023-05-08T18:49:53.425Z,7.78
2023-05-08T18:52:20.920Z,12.23
2023-05-08T18:54:48.422Z,10.23
2023-05-08T18:57:15.915Z,6.75
2023-05-08T18:59:43.406Z,11.63
2023-05-08T19:02:11.506Z,16.10
2023-05-08T19:04:41.174Z,14.77
2023-05-08T19:07:08.650Z,14.05
2023-05-08T19:09:36.114Z,10.38
2023-05-08T19:12:03.567Z,6.15
2023-05-08T19:14:31.014Z,6.85
2023-05-08T19:16:58.703Z,9.23
2023-05-08T19:19:26.453Z,9.25
2023-05-08T19:21:58.087Z,8.68
2023-05-08T19:24:29.743Z,6.93
2023-05-08T19:26:58.323Z,5.80
2023-05-08T19:29:25.869Z,5.63
2023-05-08T19:31:56.419Z,5.78
2023-05-08T19:34:24.560Z,11.27
2023-05-08T19:36:52.320Z,6.68
2023-05-08T19:39:21.128Z,7.80
2023-05-08T19:41:48.595Z,6.68
2023-05-08T19:44:16.064Z,6.88
2023-05-08T19:46:43.616Z,6.47
2023-05-08T19:49:11.121Z,6.13
2023-05-08T19:51:39.679Z,7.25
2023-05-08T19:54:07.204Z,8.88
2023-05-08T19:56:36.028Z,6.32
2023-05-08T19:59:03.509Z,5.43
2023-05-08T20:01:31.035Z,6.03
2023-05-08T20:04:00.715Z,7.45
2023-05-08T20:06:29.577Z,8.55
2023-05-08T20:08:57.164Z,6.85
2023-05-08T20:11:24.685Z,8.52
2023-05-08T20:13:53.589Z,6.85
2023-05-08T20:16:21.158Z,7.93
2023-05-08T20:18:48.727Z,12.73
2023-05-08T20:21:16.216Z,5.68
2023-05-08T20:23:43.787Z,7.68
2023-05-08T20:26:11.403Z,6.60
2023-05-08T20:28:39.131Z,6.40
2023-05-08T20:31:08.209Z,9.27
2023-05-08T20:33:35.793Z,6.20
2023-05-08T20:36:03.303Z,8.88
2023-05-08T20:38:31.522Z,8.50
2023-05-08T20:41:01.039Z,9.13
2023-05-08T20:43:28.931Z,7.35
2023-05-08T20:45:56.437Z,7.25
2023-05-08T20:48:25.324Z,8.48
2023-05-08T20:50:52.873Z,7.85
2023-05-08T20:53:20.375Z,8.10
2023-05-08T20:55:47.852Z,7.80
2023-05-08T20:58:15.349Z,8.35
2023-05-08T21:00:42.815Z,9.23
2023-05-08T21:03:10.627Z,9.73
2023-05-08T21:05:39.431Z,9.05
2023-05-08T21:08:08.614Z,9.50
2023-05-08T21:10:36.217Z,8.63
2023-05-08T21:13:04.119Z,13.63
2023-05-08T21:15:31.770Z,9.43
2023-05-08T21:17:59.251Z,7.40
2023-05-08T21:20:26.793Z,11.45
2023-05-08T21:22:55.709Z,8.43
2023-05-08T21:25:23.493Z,12.82
2023-05-08T21:27:52.316Z,9.25
2023-05-08T21:30:20.898Z,15.05
2023-05-08T21:32:48.561Z,10.68
2023-05-08T21:35:16.477Z,10.52
2023-05-08T21:37:46.952Z,11.52
2023-05-08T21:40:15.946Z,8.82
2023-05-08T21:42:43.484Z,10.43
2023-05-08T21:45:12.240Z,12.13
2023-05-08T21:47:39.877Z,11.73
2023-05-08T21:50:08.814Z,10.68
2023-05-08T21:52:36.325Z,10.82
2023-05-08T21:55:08.286Z,13.40
2023-05-08T21:57:37.145Z,9.73
2023-05-08T22:00:04.945Z,11.98
2023-05-08T22:02:34.066Z,10.77
2023-05-08T22:05:04.114Z,12.38
2023-05-08T22:07:34.531Z,9.70
2023-05-08T22:10:02.095Z,12.13
2023-05-08T22:12:29.561Z,17.50
2023-05-08T22:14:58.458Z,10.70
2023-05-08T22:17:29.078Z,12.50
2023-05-08T22:19:56.812Z,12.18
2023-05-08T22:22:27.102Z,10.48
2023-05-08T22:24:57.332Z,14.55
2023-05-08T22:27:27.601Z,12.27
2023-05-08T22:30:00.933Z,12.60
2023-05-08T22:32:31.274Z,13.88
2023-05-08T22:34:58.748Z,10.52
2023-05-08T22:37:26.858Z,11.13
2023-05-08T22:39:56.791Z,14.38
2023-05-08T22:42:25.655Z,14.48
2023-05-08T22:44:54.500Z,12.05
2023-05-08T22:47:23.369Z,12.90
2023-05-08T22:49:51.317Z,13.85
2023-05-08T22:52:18.782Z,13.88
2023-05-08T22:54:46.291Z,15.13
2023-05-08T22:57:14.756Z,12.85
2023-05-08T22:59:44.335Z,14.65
2023-05-08T23:02:11.817Z,14.10
2023-05-08T23:04:43.398Z,13.55
2023-05-08T23:07:10.904Z,13.13
2023-05-08T23:09:38.391Z,17.00
2023-05-08T23:12:06.359Z,14.20
2023-05-08T23:14:33.879Z,14.38
2023-05-08T23:17:03.627Z,15.85
2023-05-08T23:19:31.218Z,13.23
2023-05-08T23:22:00.066Z,19.88
2023-05-08T23:24:27.588Z,14.48
2023-05-08T23:26:56.702Z,15.20
2023-05-08T23:29:24.291Z,15.88
2023-05-08T23:31:54.183Z,17.00
2023-05-08T23:34:21.657Z,15.32
2023-05-08T23:36:49.110Z,15.15
2023-05-08T23:39:20.189Z,15.68
2023-05-08T23:41:49.403Z,19.38
2023-05-08T23:44:19.315Z,16.70
2023-05-08T23:46:49.559Z,17.02
2023-05-08T23:49:19.260Z,15.15
2023-05-08T23:51:47.965Z,17.77
2023-05-08T23:54:15.449Z,15.43
2023-05-08T23:56:44.845Z,17.40
2023-05-08T23:59:14.379Z,17.55
